Terminal Aerodrome Forecast
Issued by NWS

Home | Current Version | Previous Version | Text Only | Print | Product List | Glossary On
Versions: 1 2 3 4 5 6 7 8 9 10 11 12 13 14 15 16 17 18 19 20 21 22 23 24 25 26 27 28
000
FTUS46 KEKA 170400 AAB
TAFCEC
TAF AMD
KCEC 170428Z 1704/1724 02005KT P6SM SKC
      TEMPO 1704/1708 32004KT P6SM OVC006
     FM170800 VRB03KT P6SM OVC006
     FM171100 00000KT 4SM BR OVC004
     FM171800 33005KT P6SM OVC015
     FM172100 31008KT P6SM -RA SCT015 OVC050=

USA.gov is the U.S. government's official web portal to all federal, state and local government web resources and services.